Terminal Aerodrome Forecast
Issued by NWS Amarillo, TX

Home | Current Version | Previous Version | Text Only | Print | Product List | Glossary On
Versions: 1 2 3 4 5 6 7 8 9 10 11 12 13 14 15 16 17 18
000
FTUS44 KAMA 230500
TAFAMA
TAF
KAMA 230520Z 2306/2406 20009KT P6SM SCT110 BKN200
     FM231000 22006KT P6SM SCT200
     FM231600 14008KT P6SM FEW090
     FM240100 17010KT P6SM FEW200=

USA.gov is the U.S. government's official web portal to all federal, state and local government web resources and services.